Latest Weather Observations for Longerenong

IDV60801

Issued at 5:32 pm EST Tuesday 28 June 2016 (issued every 30 minutes, with the page automatically refreshed every 10 minutes)

About weather observations | Map of weather stations | Latest weather observations for VIC | Other Formats
Station Details ID: 079028 Name: LONGERENONG Lat: -36.67 Lon: 142.30 Height: 133.0 m
Data from the previous 72 hours. | See also: Recent months at Longerenong
Date/Time
EST
Temp
°C
App
Temp
°C
Dew
Point
°C
Rel
Hum
%
Delta-T
°C
Wind Press
QNH
hPa
Press
MSL
hPa
Rain since
9am
mm
Dir  Spd
km/h
Gust
km/h
Spd
kts
Gust
kts
28/05:30pm 12.2 9.9 8.9 80 1.7 NW 11 15 6 8 - - 0.0
28/05:00pm 13.4 10.7 9.1 75 2.2 NW 13 19 7 10 - - 0.0
28/04:30pm 14.7 11.2 8.9 68 3.0 WNW 17 28 9 15 - - 0.0
28/04:00pm 14.7 12.1 9.5 71 2.7 WNW 13 19 7 10 - - 0.0
28/03:30pm 15.4 13.2 9.5 68 3.1 WNW 11 24 6 13 - - 0.0
28/03:00pm 14.8 11.5 9.4 70 2.8 WNW 17 20 9 11 - - 0.0
28/02:30pm 15.1 12.8 10.3 73 2.5 W 13 20 7 11 - - 0.0
28/02:00pm 14.8 12.1 10.4 75 2.3 W 15 20 8 11 - - 0.0
28/01:30pm 14.1 11.4 10.5 79 1.9 W 15 20 8 11 - - 0.0
28/01:00pm 13.7 11.0 10.3 80 1.8 W 15 19 8 10 - - 0.0
28/12:30pm 13.3 10.2 10.3 82 1.6 WSW 17 24 9 13 - - 0.0
28/12:00pm 12.6 9.1 10.3 86 1.2 WNW 19 24 10 13 - - 0.0
28/11:30am 11.4 8.6 10.0 91 0.7 W 15 20 8 11 - - 0.0
28/11:00am 10.1 7.4 9.0 93 0.5 W 13 20 7 11 - - 0.0
28/10:30am 8.9 6.7 8.0 94 0.4 WNW 9 15 5 8 - - 0.0
28/10:00am 7.8 6.0 7.2 96 0.3 NNW 6 7 3 4 - - 0.0
28/09:30am 5.8 3.6 5.5 98 0.1 NW 6 9 3 5 - - 0.0
28/09:00am 4.0 1.5 3.7 98 0.1 NNW 6 9 3 5 - - 0.0
28/08:30am 3.1 0.2 2.8 98 0.1 NNW 7 9 4 5 - - 0.0
28/08:00am 2.5 -0.3 2.2 98 0.1 N 6 6 3 3 - - 0.0
28/07:30am 2.1 -0.9 1.8 98 0.1 NNW 7 11 4 6 - - 0.0
28/07:00am 1.6 -1.9 1.3 98 0.1 NNW 9 13 5 7 - - 0.0
28/06:30am 1.7 -1.8 1.4 98 0.1 NNW 9 13 5 7 - - 0.0
28/06:00am 1.9 -1.9 1.6 98 0.1 NNW 11 13 6 7 - - 0.0
28/05:30am 1.8 -1.7 1.5 98 0.1 NW 9 11 5 6 - - 0.0
28/05:00am 1.9 -1.2 1.6 98 0.1 NW 7 9 4 5 - - 0.0
28/04:30am 2.2 -1.2 1.9 98 0.1 NW 9 11 5 6 - - 0.0
28/04:00am 2.3 -1.5 2.0 98 0.1 NNW 11 15 6 8 - - 0.0
28/03:30am 2.4 -1.7 2.1 98 0.1 NNW 13 15 7 8 - - 0.0
28/03:00am 2.2 -1.6 1.9 98 0.1 NNW 11 13 6 7 - - 0.0
28/02:30am 1.7 -1.4 1.3 97 0.2 NNW 7 9 4 5 - - 0.0
28/02:00am 1.6 -1.9 1.2 97 0.2 NNW 9 11 5 6 - - 0.0
28/01:30am 2.5 -0.9 2.1 97 0.2 NNW 9 11 5 6 - - 0.0
28/01:00am 2.6 -0.7 2.2 97 0.2 NNW 9 11 5 6 - - 0.0
28/12:30am 2.5 -0.5 1.9 96 0.2 NNW 7 9 4 5 - - 0.0
28/12:00am 2.4 -1.0 1.8 96 0.2 NNW 9 11 5 6 - - 0.0
 
Date/Time
EST
Temp
°C
App
Temp
°C
Dew
Point
°C
Rel
Hum
%
Delta-T
°C
Wind Press
QNH
hPa
Press
MSL
hPa
Rain since
9am
mm
Dir  Spd
km/h
Gust
km/h
Spd
kts
Gust
kts
27/11:30pm 2.5 -0.5 1.8 95 0.3 NNW 7 9 4 5 - - 0.0
27/11:00pm 3.5 0.3 2.8 95 0.3 NNW 9 11 5 6 - - 0.0
27/10:30pm 3.4 0.1 2.5 94 0.4 NNW 9 11 5 6 - - 0.0
27/10:00pm 3.7 0.4 2.7 93 0.4 NNW 9 11 5 6 - - 0.0
27/09:30pm 4.8 1.7 3.8 93 0.4 NNW 9 11 5 6 - - 0.0
27/09:00pm 5.1 2.1 4.1 93 0.4 NNW 9 11 5 6 - - 0.0
27/08:30pm 5.4 2.4 4.2 92 0.5 NNW 9 11 5 6 - - 0.0
27/08:00pm 7.0 4.3 5.5 90 0.7 SW 9 11 5 6 - - 0.0
27/07:30pm 7.9 5.7 6.0 88 0.9 SW 7 9 4 5 - - 0.0
27/07:00pm 8.7 6.6 6.5 86 1.0 SW 7 7 4 4 - - 0.0
27/06:30pm 8.2 6.3 6.5 89 0.8 SW 6 6 3 3 - - 0.0
27/06:00pm 8.7 7.9 6.3 85 1.1 CALM 0 0 0 0 - - 0.0
27/05:30pm 9.5 8.3 6.6 82 1.4 SSW 2 4 1 2 - - 0.0
27/05:00pm 10.1 8.5 6.4 78 1.7 SSW 4 6 2 3 - - 0.0
27/04:30pm 11.4 9.5 6.7 73 2.2 SW 6 9 3 5 - - 0.0
27/04:00pm 11.6 9.1 6.5 71 2.4 SW 9 13 5 7 - - 0.0
27/03:30pm 11.4 9.0 7.1 75 2.1 SW 9 11 5 6 - - 0.0
27/03:00pm 11.2 9.0 7.9 80 1.6 SW 9 15 5 8 - - 0.0
27/02:30pm 10.8 8.3 8.0 83 1.4 WSW 11 17 6 9 - - 0.0
27/02:00pm 10.0 7.8 7.8 86 1.1 WSW 9 13 5 7 - - 0.0
27/01:30pm 9.4 6.8 7.7 89 0.8 WSW 11 15 6 8 - - 0.0
27/01:00pm 8.4 5.3 7.3 93 0.5 WSW 13 19 7 10 - - 0.0
27/12:30pm 8.7 6.3 7.2 90 0.7 W 9 13 5 7 - - 0.0
27/12:00pm 8.0 5.5 6.5 90 0.7 W 9 13 5 7 - - 0.0
27/11:30am 7.9 5.4 6.5 91 0.6 WSW 9 11 5 6 - - 0.0
27/11:00am 7.6 5.0 6.1 90 0.7 W 9 15 5 8 - - 0.0
27/10:30am 6.7 3.9 5.3 91 0.6 WNW 9 13 5 7 - - 0.0
27/10:00am 5.9 3.4 4.7 92 0.5 NW 7 11 4 6 - - 0.0
27/09:30am 4.5 2.8 3.8 95 0.3 WNW 2 4 1 2 - - 0.0
27/09:00am 3.6 1.0 3.0 96 0.2 NW 6 7 3 4 - - 0.0
27/08:30am 3.0 0.1 2.4 96 0.2 NNW 7 11 4 6 - - 0.0
27/08:00am 2.4 -0.4 1.8 96 0.2 NNW 6 9 3 5 - - 0.0
27/07:30am 1.9 -1.0 1.3 96 0.2 NNW 6 7 3 4 - - 0.0
27/07:00am 2.1 -1.0 1.5 96 0.2 N 7 9 4 5 - - 0.0
27/06:30am 2.5 -0.9 1.8 95 0.3 N 9 11 5 6 - - 0.0
27/06:00am 2.8 0.0 1.9 94 0.4 N 6 7 3 4 - - 0.0
27/05:30am 3.3 0.6 2.4 94 0.4 NNW 6 6 3 3 - - 0.0
27/05:00am 3.5 0.8 2.6 94 0.4 NNW 6 9 3 5 - - 0.0
27/04:30am 3.6 0.9 2.7 94 0.4 NW 6 7 3 4 - - 0.0
27/04:00am 3.7 0.5 2.8 94 0.4 NNW 9 13 5 7 - - 0.0
27/03:30am 3.7 0.4 2.7 93 0.4 NNW 9 11 5 6 - - 0.0
27/03:00am 3.9 0.7 2.9 93 0.4 NNW 9 13 5 7 - - 0.0
27/02:30am 3.8 0.6 2.8 93 0.4 NNW 9 13 5 7 - - 0.0
27/02:00am 3.4 -0.3 2.5 94 0.4 N 11 13 6 7 - - 0.0
27/01:30am 3.1 -0.6 2.1 93 0.4 N 11 13 6 7 - - 0.0
27/01:00am 3.6 -0.1 2.3 91 0.5 N 11 15 6 8 - - 0.0
27/12:30am 4.5 0.1 2.8 89 0.7 N 15 20 8 11 - - 0.0
27/12:00am 4.7 0.0 3.0 89 0.7 N 17 20 9 11 - - 0.0
 
Date/Time
EST
Temp
°C
App
Temp
°C
Dew
Point
°C
Rel
Hum
%
Delta-T
°C
Wind Press
QNH
hPa
Press
MSL
hPa
Rain since
9am
mm
Dir  Spd
km/h
Gust
km/h
Spd
kts
Gust
kts
26/11:30pm 5.3 1.8 3.6 89 0.7 N 11 15 6 8 - - 0.0
26/11:00pm 6.0 2.6 4.0 87 0.9 N 11 13 6 7 - - 0.0
26/10:30pm 5.5 2.5 4.0 90 0.6 N 9 11 5 6 - - 0.0
26/10:00pm 5.8 2.8 4.0 88 0.8 N 9 11 5 6 - - 0.0
26/09:30pm 6.1 3.1 3.9 86 0.9 N 9 13 5 7 - - 0.0
26/09:00pm 5.8 3.2 4.1 89 0.7 N 7 9 4 5 - - 0.0
26/08:30pm 5.7 3.0 3.9 88 0.8 N 7 11 4 6 - - 0.0
26/08:00pm 6.6 3.3 4.3 85 1.0 N 11 17 6 9 - - 0.0
26/07:30pm 6.7 3.7 4.0 83 1.2 N 9 13 5 7 - - 0.0
26/07:00pm 6.4 3.4 3.9 84 1.1 N 9 11 5 6 - - 0.0
26/06:30pm 7.0 4.4 4.1 82 1.3 N 7 11 4 6 - - 0.0
26/06:00pm 7.7 4.8 4.7 81 1.3 N 9 11 5 6 - - 0.0
26/05:30pm 7.7 4.8 4.8 82 1.3 N 9 11 5 6 - - 0.0
26/05:00pm 8.1 4.0 4.1 76 1.8 N 15 20 8 11 - - 0.0
26/04:30pm 8.5 4.8 4.5 76 1.8 N 13 19 7 10 - - 0.0
26/04:00pm 8.7 4.2 4.1 73 2.0 N 17 22 9 12 - - 0.0
26/03:30pm 8.8 4.3 4.2 73 2.0 N 17 20 9 11 - - 0.0
26/03:00pm 8.9 4.0 4.1 72 2.1 N 19 24 10 13 - - 0.0
26/02:30pm 8.7 3.8 4.1 73 2.0 N 19 24 10 13 - - 0.0
26/02:00pm 8.8 3.9 4.2 73 2.0 NNW 19 24 10 13 - - 0.0
26/01:30pm 9.1 4.7 4.7 74 2.0 NNW 17 26 9 14 - - 0.0
26/01:00pm 9.1 4.1 4.7 74 2.0 NNW 20 28 11 15 - - 0.0
26/12:30pm 9.0 3.1 4.0 71 2.2 NNW 24 32 13 17 - - 0.0
26/12:00pm 8.8 4.1 5.2 78 1.6 NNW 19 24 10 13 - - 0.0
26/11:30am 8.1 2.7 4.5 78 1.6 NNW 22 28 12 15 - - 0.0
26/11:00am 7.7 2.3 4.5 80 1.4 NNW 22 30 12 16 - - 0.0
26/10:30am 8.2 3.1 4.2 76 1.8 N 20 28 11 15 - - 0.0
26/10:00am 6.9 2.7 3.7 80 1.4 N 15 22 8 12 - - 0.0
26/09:30am 6.3 2.4 3.3 81 1.3 NNE 13 19 7 10 - - 0.0
26/09:00am 5.8 2.2 3.1 83 1.1 NNE 11 17 6 9 - - 0.0
26/08:30am 5.4 1.8 3.1 85 1.0 NNE 11 17 6 9 - - 0.0
26/08:00am 5.2 2.0 2.9 85 1.0 NNE 9 15 5 8 - - 0.0
26/07:30am 4.6 1.7 2.6 87 0.8 N 7 11 4 6 - - 0.0
26/07:00am 4.4 1.1 2.4 87 0.8 N 9 13 5 7 - - 0.0
26/06:30am 5.1 1.4 2.3 82 1.1 N 11 17 6 9 - - 0.0
26/06:00am 4.5 1.3 2.8 89 0.7 N 9 13 5 7 - - 0.0
26/05:30am 2.5 -0.1 1.2 91 0.5 NNE 4 6 2 3 - - 0.0
26/05:00am 3.6 0.8 1.8 88 0.7 N 6 7 3 4 - - 0.0
26/04:30am 3.3 0.3 2.1 92 0.5 N 7 9 4 5 - - 0.0
26/04:00am 3.0 0.0 1.7 91 0.5 N 7 11 4 6 - - 0.0
26/03:30am 2.0 -1.0 0.8 92 0.5 NNW 6 7 3 4 - - 0.0
26/03:00am 2.4 -0.6 1.1 91 0.5 NNW 6 7 3 4 - - 0.0
26/02:30am 3.3 0.3 1.8 90 0.6 NNW 7 9 4 5 - - 0.0
26/02:00am 3.9 1.1 2.3 89 0.6 NNW 6 7 3 4 - - 0.0
26/01:30am 5.4 2.2 2.8 83 1.1 N 9 11 5 6 - - 0.0
26/01:00am 5.7 2.5 2.9 82 1.2 N 9 11 5 6 - - 0.0
26/12:30am 5.4 1.8 2.9 84 1.0 N 11 13 6 7 - - 0.0
26/12:00am 6.2 3.4 3.0 80 1.3 N 7 11 4 6 - - 0.0
 
Date/Time
EST
Temp
°C
App
Temp
°C
Dew
Point
°C
Rel
Hum
%
Delta-T
°C
Wind Press
QNH
hPa
Press
MSL
hPa
Rain since
9am
mm
Dir  Spd
km/h
Gust
km/h
Spd
kts
Gust
kts
25/11:30pm 7.1 4.3 3.2 76 1.7 N 7 11 4 6 - - 0.0
25/11:00pm 7.4 4.7 3.5 76 1.7 N 7 11 4 6 - - 0.0
25/10:30pm 8.1 5.4 3.8 74 1.9 N 7 11 4 6 - - 0.0
25/10:00pm 7.6 4.7 4.6 81 1.3 N 9 15 5 8 - - 0.0
25/09:30pm 7.9 5.3 4.1 77 1.7 N 7 11 4 6 - - 0.0
25/09:00pm 7.5 5.1 4.3 80 1.4 NNE 6 7 3 4 - - 0.0
25/08:30pm 7.5 4.9 4.1 79 1.5 N 7 9 4 5 - - 0.0
25/08:00pm 8.5 6.1 4.5 76 1.8 NNE 6 7 3 4 - - 0.0
25/07:30pm 8.6 6.3 4.6 76 1.8 S 6 7 3 4 - - 0.0
25/07:00pm 8.4 6.1 4.6 77 1.7 S 6 9 3 5 - - 0.0
25/06:30pm 8.4 6.4 4.6 77 1.7 S 4 4 2 2 - - 0.0
25/06:00pm 8.6 6.7 5.0 78 1.6 S 4 6 2 3 - - 0.0

Other Formats:

Comma delimited format used in spreadsheet applications
http://www.bom.gov.au/fwo/IDV60801/IDV60801.95835.axf

JavaScript Object Notation format (JSON) in row-major order
http://www.bom.gov.au/fwo/IDV60801/IDV60801.95835.json